sensor_id;sensor_type;location;lat;lon;timestamp;temperature;humidity
7196;DHT22;3639;51.308;5.624;2023-10-31T00:01:35;10.90;99.90
7196;DHT22;3639;51.308;5.624;2023-10-31T00:04:00;10.90;99.90
7196;DHT22;3639;51.308;5.624;2023-10-31T00:06:26;10.90;99.90
7196;DHT22;3639;51.308;5.624;2023-10-31T00:08:51;10.90;99.90
7196;DHT22;3639;51.308;5.624;2023-10-31T00:11:17;10.80;99.90
7196;DHT22;3639;51.308;5.624;2023-10-31T00:13:42;10.90;99.90
7196;DHT22;3639;51.308;5.624;2023-10-31T00:16:08;10.90;99.90
7196;DHT22;3639;51.308;5.624;2023-10-31T00:18:34;10.90;99.90
7196;DHT22;3639;51.308;5.624;2023-10-31T00:20:59;10.80;99.90
7196;DHT22;3639;51.308;5.624;2023-10-31T00:23:25;10.90;99.90
7196;DHT22;3639;51.308;5.624;2023-10-31T00:25:51;10.90;99.90
7196;DHT22;3639;51.308;5.624;2023-10-31T00:28:17;10.90;99.90
7196;DHT22;3639;51.308;5.624;2023-10-31T00:30:42;10.80;99.90
7196;DHT22;3639;51.308;5.624;2023-10-31T00:33:08;10.80;99.90
7196;DHT22;3639;51.308;5.624;2023-10-31T00:35:33;10.90;99.90
7196;DHT22;3639;51.308;5.624;2023-10-31T00:37:59;10.90;99.90
7196;DHT22;3639;51.308;5.624;2023-10-31T00:40:24;10.90;99.90
7196;DHT22;3639;51.308;5.624;2023-10-31T00:42:50;10.90;99.90
7196;DHT22;3639;51.308;5.624;2023-10-31T00:45:16;10.90;99.90
7196;DHT22;3639;51.308;5.624;2023-10-31T00:47:41;10.80;99.90
7196;DHT22;3639;51.308;5.624;2023-10-31T00:50:07;10.90;99.90
7196;DHT22;3639;51.308;5.624;2023-10-31T00:52:33;10.90;99.90
7196;DHT22;3639;51.308;5.624;2023-10-31T00:54:58;10.90;99.90
7196;DHT22;3639;51.308;5.624;2023-10-31T00:57:24;10.90;99.90
7196;DHT22;3639;51.308;5.624;2023-10-31T00:59:50;10.90;99.90
7196;DHT22;3639;51.308;5.624;2023-10-31T01:02:15;10.90;99.90
7196;DHT22;3639;51.308;5.624;2023-10-31T01:04:41;10.90;99.90
7196;DHT22;3639;51.308;5.624;2023-10-31T01:07:07;10.90;99.90
7196;DHT22;3639;51.308;5.624;2023-10-31T01:09:37;10.90;99.90
7196;DHT22;3639;51.308;5.624;2023-10-31T01:12:02;10.90;99.90
7196;DHT22;3639;51.308;5.624;2023-10-31T01:14:28;10.90;99.90
7196;DHT22;3639;51.308;5.624;2023-10-31T01:16:54;10.90;99.90
7196;DHT22;3639;51.308;5.624;2023-10-31T01:19:19;10.90;99.90
7196;DHT22;3639;51.308;5.624;2023-10-31T01:21:45;10.90;99.90
7196;DHT22;3639;51.308;5.624;2023-10-31T01:24:10;10.90;99.90
7196;DHT22;3639;51.308;5.624;2023-10-31T01:26:36;10.90;99.90
7196;DHT22;3639;51.308;5.624;2023-10-31T01:29:01;10.90;99.90
7196;DHT22;3639;51.308;5.624;2023-10-31T01:31:27;10.90;99.90
7196;DHT22;3639;51.308;5.624;2023-10-31T01:33:53;10.90;99.90
7196;DHT22;3639;51.308;5.624;2023-10-31T01:36:19;10.90;99.90
7196;DHT22;3639;51.308;5.624;2023-10-31T01:38:44;10.90;99.90
7196;DHT22;3639;51.308;5.624;2023-10-31T01:41:12;10.90;99.90
7196;DHT22;3639;51.308;5.624;2023-10-31T01:43:37;10.90;99.90
7196;DHT22;3639;51.308;5.624;2023-10-31T01:46:04;10.90;99.90
7196;DHT22;3639;51.308;5.624;2023-10-31T01:48:30;10.90;99.90
7196;DHT22;3639;51.308;5.624;2023-10-31T01:50:58;10.90;99.90
7196;DHT22;3639;51.308;5.624;2023-10-31T01:53:25;11.00;99.90
7196;DHT22;3639;51.308;5.624;2023-10-31T01:55:54;11.00;99.90
7196;DHT22;3639;51.308;5.624;2023-10-31T01:58:25;11.00;99.90
7196;DHT22;3639;51.308;5.624;2023-10-31T02:00:51;11.00;99.90
7196;DHT22;3639;51.308;5.624;2023-10-31T02:03:17;11.00;99.90
7196;DHT22;3639;51.308;5.624;2023-10-31T02:05:43;11.00;99.90
7196;DHT22;3639;51.308;5.624;2023-10-31T02:08:09;11.00;99.90
7196;DHT22;3639;51.308;5.624;2023-10-31T02:10:35;11.00;99.90
7196;DHT22;3639;51.308;5.624;2023-10-31T02:13:15;11.00;99.90
7196;DHT22;3639;51.308;5.624;2023-10-31T02:15:41;11.00;99.90
7196;DHT22;3639;51.308;5.624;2023-10-31T02:18:07;11.00;99.90
7196;DHT22;3639;51.308;5.624;2023-10-31T02:20:34;11.00;99.90
7196;DHT22;3639;51.308;5.624;2023-10-31T02:22:59;11.00;99.90
7196;DHT22;3639;51.308;5.624;2023-10-31T02:25:25;11.00;99.90
7196;DHT22;3639;51.308;5.624;2023-10-31T02:27:51;11.00;99.90
7196;DHT22;3639;51.308;5.624;2023-10-31T02:30:16;11.00;99.90
7196;DHT22;3639;51.308;5.624;2023-10-31T02:32:42;11.00;99.90
7196;DHT22;3639;51.308;5.624;2023-10-31T02:35:08;11.00;99.90
7196;DHT22;3639;51.308;5.624;2023-10-31T02:37:34;11.00;99.90
7196;DHT22;3639;51.308;5.624;2023-10-31T02:40:00;11.00;99.90
7196;DHT22;3639;51.308;5.624;2023-10-31T02:42:26;11.10;99.90
7196;DHT22;3639;51.308;5.624;2023-10-31T02:44:51;11.00;99.90
7196;DHT22;3639;51.308;5.624;2023-10-31T02:47:17;11.10;99.90
7196;DHT22;3639;51.308;5.624;2023-10-31T02:49:43;11.00;99.90
7196;DHT22;3639;51.308;5.624;2023-10-31T02:52:08;11.00;99.90
7196;DHT22;3639;51.308;5.624;2023-10-31T02:54:34;11.00;99.90
7196;DHT22;3639;51.308;5.624;2023-10-31T02:56:59;11.10;99.90
7196;DHT22;3639;51.308;5.624;2023-10-31T02:59:25;11.00;99.90
7196;DHT22;3639;51.308;5.624;2023-10-31T03:01:51;11.10;99.90
7196;DHT22;3639;51.308;5.624;2023-10-31T03:04:17;11.00;99.90
7196;DHT22;3639;51.308;5.624;2023-10-31T03:06:42;11.10;99.90
7196;DHT22;3639;51.308;5.624;2023-10-31T03:09:08;11.00;99.90
7196;DHT22;3639;51.308;5.624;2023-10-31T03:11:34;11.10;99.90
7196;DHT22;3639;51.308;5.624;2023-10-31T03:13:59;11.10;99.90
7196;DHT22;3639;51.308;5.624;2023-10-31T03:16:25;11.10;99.90
7196;DHT22;3639;51.308;5.624;2023-10-31T03:18:50;11.00;99.90
7196;DHT22;3639;51.308;5.624;2023-10-31T03:21:17;11.00;99.90
7196;DHT22;3639;51.308;5.624;2023-10-31T03:23:48;11.00;99.90
7196;DHT22;3639;51.308;5.624;2023-10-31T03:26:18;11.10;99.90
7196;DHT22;3639;51.308;5.624;2023-10-31T03:28:44;11.10;99.90
7196;DHT22;3639;51.308;5.624;2023-10-31T03:31:11;11.10;99.90
7196;DHT22;3639;51.308;5.624;2023-10-31T03:33:36;11.00;99.90
7196;DHT22;3639;51.308;5.624;2023-10-31T03:36:03;11.00;99.90
7196;DHT22;3639;51.308;5.624;2023-10-31T03:38:28;11.00;99.90
7196;DHT22;3639;51.308;5.624;2023-10-31T03:40:54;11.00;99.90
7196;DHT22;3639;51.308;5.624;2023-10-31T03:43:20;11.00;99.90
7196;DHT22;3639;51.308;5.624;2023-10-31T03:45:48;11.10;99.90
7196;DHT22;3639;51.308;5.624;2023-10-31T03:48:17;11.10;99.90
7196;DHT22;3639;51.308;5.624;2023-10-31T03:50:43;11.10;99.90
7196;DHT22;3639;51.308;5.624;2023-10-31T03:53:09;11.10;99.90
7196;DHT22;3639;51.308;5.624;2023-10-31T03:55:34;11.10;99.90
7196;DHT22;3639;51.308;5.624;2023-10-31T03:58:00;11.10;99.90
7196;DHT22;3639;51.308;5.624;2023-10-31T04:00:26;11.10;99.90
7196;DHT22;3639;51.308;5.624;2023-10-31T04:02:51;11.10;99.90
7196;DHT22;3639;51.308;5.624;2023-10-31T04:05:17;11.10;99.90
7196;DHT22;3639;51.308;5.624;2023-10-31T04:07:43;11.10;99.90
7196;DHT22;3639;51.308;5.624;2023-10-31T04:10:09;11.00;99.90
7196;DHT22;3639;51.308;5.624;2023-10-31T04:12:35;11.00;99.90
7196;DHT22;3639;51.308;5.624;2023-10-31T04:15:01;11.00;99.90
7196;DHT22;3639;51.308;5.624;2023-10-31T04:17:26;11.00;99.90
7196;DHT22;3639;51.308;5.624;2023-10-31T04:19:52;11.00;99.90
7196;DHT22;3639;51.308;5.624;2023-10-31T04:22:17;11.00;99.90
7196;DHT22;3639;51.308;5.624;2023-10-31T04:24:43;11.00;99.90
7196;DHT22;3639;51.308;5.624;2023-10-31T04:27:09;10.90;99.90
7196;DHT22;3639;51.308;5.624;2023-10-31T04:29:34;10.90;99.90
7196;DHT22;3639;51.308;5.624;2023-10-31T04:32:00;10.90;99.90
7196;DHT22;3639;51.308;5.624;2023-10-31T04:34:25;10.90;99.90
7196;DHT22;3639;51.308;5.624;2023-10-31T04:36:51;10.90;99.90
7196;DHT22;3639;51.308;5.624;2023-10-31T04:39:17;10.90;99.90
7196;DHT22;3639;51.308;5.624;2023-10-31T04:41:42;10.90;99.90
7196;DHT22;3639;51.308;5.624;2023-10-31T04:44:08;10.90;99.90
7196;DHT22;3639;51.308;5.624;2023-10-31T04:46:33;10.90;99.90
7196;DHT22;3639;51.308;5.624;2023-10-31T04:48:59;10.80;99.90
7196;DHT22;3639;51.308;5.624;2023-10-31T04:51:25;10.90;99.90
7196;DHT22;3639;51.308;5.624;2023-10-31T04:53:50;10.90;99.90
7196;DHT22;3639;51.308;5.624;2023-10-31T04:56:17;10.90;99.90
7196;DHT22;3639;51.308;5.624;2023-10-31T04:58:42;10.90;99.90
7196;DHT22;3639;51.308;5.624;2023-10-31T05:01:09;10.80;99.90
7196;DHT22;3639;51.308;5.624;2023-10-31T05:03:35;10.80;99.90
7196;DHT22;3639;51.308;5.624;2023-10-31T05:06:04;10.80;99.90
7196;DHT22;3639;51.308;5.624;2023-10-31T05:08:30;10.90;99.90
7196;DHT22;3639;51.308;5.624;2023-10-31T05:10:59;10.90;99.90
7196;DHT22;3639;51.308;5.624;2023-10-31T05:13:24;10.90;99.90
7196;DHT22;3639;51.308;5.624;2023-10-31T05:15:50;10.90;99.90
7196;DHT22;3639;51.308;5.624;2023-10-31T05:18:19;10.90;99.90
7196;DHT22;3639;51.308;5.624;2023-10-31T05:20:45;10.90;99.90
7196;DHT22;3639;51.308;5.624;2023-10-31T05:23:10;10.90;99.90
7196;DHT22;3639;51.308;5.624;2023-10-31T05:25:36;11.00;99.90
7196;DHT22;3639;51.308;5.624;2023-10-31T05:28:03;10.90;99.90
7196;DHT22;3639;51.308;5.624;2023-10-31T05:30:29;10.90;99.90
7196;DHT22;3639;51.308;5.624;2023-10-31T05:32:54;10.90;99.90
7196;DHT22;3639;51.308;5.624;2023-10-31T05:35:21;10.80;99.90
7196;DHT22;3639;51.308;5.624;2023-10-31T05:37:47;10.90;99.90
7196;DHT22;3639;51.308;5.624;2023-10-31T05:40:13;10.80;99.90
7196;DHT22;3639;51.308;5.624;2023-10-31T05:42:39;10.80;99.90
7196;DHT22;3639;51.308;5.624;2023-10-31T05:45:05;10.80;99.90
7196;DHT22;3639;51.308;5.624;2023-10-31T05:47:31;10.80;99.90
7196;DHT22;3639;51.308;5.624;2023-10-31T05:49:58;10.80;99.90
7196;DHT22;3639;51.308;5.624;2023-10-31T05:52:28;10.80;99.90
7196;DHT22;3639;51.308;5.624;2023-10-31T05:54:53;10.70;99.90
7196;DHT22;3639;51.308;5.624;2023-10-31T05:57:19;10.70;99.90
7196;DHT22;3639;51.308;5.624;2023-10-31T05:59:45;10.70;99.90
7196;DHT22;3639;51.308;5.624;2023-10-31T06:02:10;10.80;99.90
7196;DHT22;3639;51.308;5.624;2023-10-31T06:04:36;10.70;99.90
7196;DHT22;3639;51.308;5.624;2023-10-31T06:07:01;10.70;99.90
7196;DHT22;3639;51.308;5.624;2023-10-31T06:09:28;10.70;99.90
7196;DHT22;3639;51.308;5.624;2023-10-31T06:11:53;10.60;99.90
7196;DHT22;3639;51.308;5.624;2023-10-31T06:14:19;10.60;99.90
7196;DHT22;3639;51.308;5.624;2023-10-31T06:16:44;10.50;99.90
7196;DHT22;3639;51.308;5.624;2023-10-31T06:19:10;10.40;99.90
7196;DHT22;3639;51.308;5.624;2023-10-31T06:21:36;10.50;99.90
7196;DHT22;3639;51.308;5.624;2023-10-31T06:24:05;10.40;99.90
7196;DHT22;3639;51.308;5.624;2023-10-31T06:26:30;10.50;99.90
7196;DHT22;3639;51.308;5.624;2023-10-31T06:28:56;10.50;99.90
7196;DHT22;3639;51.308;5.624;2023-10-31T06:31:22;10.50;99.90
7196;DHT22;3639;51.308;5.624;2023-10-31T06:33:47;10.50;99.90
7196;DHT22;3639;51.308;5.624;2023-10-31T06:36:13;10.50;99.90
7196;DHT22;3639;51.308;5.624;2023-10-31T06:38:38;10.40;99.90
7196;DHT22;3639;51.308;5.624;2023-10-31T06:41:04;10.40;99.90
7196;DHT22;3639;51.308;5.624;2023-10-31T06:43:30;10.40;99.90
7196;DHT22;3639;51.308;5.624;2023-10-31T06:45:55;10.40;99.90
7196;DHT22;3639;51.308;5.624;2023-10-31T06:48:22;10.30;99.90
7196;DHT22;3639;51.308;5.624;2023-10-31T06:50:48;10.30;99.90
7196;DHT22;3639;51.308;5.624;2023-10-31T06:53:14;10.30;99.90
7196;DHT22;3639;51.308;5.624;2023-10-31T06:55:39;10.30;99.90
7196;DHT22;3639;51.308;5.624;2023-10-31T06:58:05;10.20;99.90
7196;DHT22;3639;51.308;5.624;2023-10-31T07:00:31;10.20;99.90
7196;DHT22;3639;51.308;5.624;2023-10-31T07:02:56;10.20;99.90
7196;DHT22;3639;51.308;5.624;2023-10-31T07:05:24;10.20;99.90
7196;DHT22;3639;51.308;5.624;2023-10-31T07:07:50;10.20;99.90
7196;DHT22;3639;51.308;5.624;2023-10-31T07:10:16;10.30;99.90
7196;DHT22;3639;51.308;5.624;2023-10-31T07:12:42;10.30;99.90
7196;DHT22;3639;51.308;5.624;2023-10-31T07:15:07;10.40;99.90
7196;DHT22;3639;51.308;5.624;2023-10-31T07:17:33;10.40;99.90
7196;DHT22;3639;51.308;5.624;2023-10-31T07:19:59;10.40;99.90
7196;DHT22;3639;51.308;5.624;2023-10-31T07:22:24;10.40;99.90
7196;DHT22;3639;51.308;5.624;2023-10-31T07:24:51;10.40;99.90
7196;DHT22;3639;51.308;5.624;2023-10-31T07:27:17;10.40;99.90
7196;DHT22;3639;51.308;5.624;2023-10-31T07:29:43;10.40;99.90
7196;DHT22;3639;51.308;5.624;2023-10-31T07:32:09;10.50;99.90
7196;DHT22;3639;51.308;5.624;2023-10-31T07:34:34;10.50;99.90
7196;DHT22;3639;51.308;5.624;2023-10-31T07:37:00;10.50;99.90
7196;DHT22;3639;51.308;5.624;2023-10-31T07:39:25;10.50;99.90
7196;DHT22;3639;51.308;5.624;2023-10-31T07:41:51;10.50;99.90
7196;DHT22;3639;51.308;5.624;2023-10-31T07:44:17;10.60;99.90
7196;DHT22;3639;51.308;5.624;2023-10-31T07:46:42;10.60;99.90
7196;DHT22;3639;51.308;5.624;2023-10-31T07:49:08;10.60;99.90
7196;DHT22;3639;51.308;5.624;2023-10-31T07:51:34;10.60;99.90
7196;DHT22;3639;51.308;5.624;2023-10-31T07:53:59;10.60;99.90
7196;DHT22;3639;51.308;5.624;2023-10-31T07:56:25;10.60;99.90
7196;DHT22;3639;51.308;5.624;2023-10-31T07:58:51;10.70;99.90
7196;DHT22;3639;51.308;5.624;2023-10-31T08:01:17;10.70;99.90
7196;DHT22;3639;51.308;5.624;2023-10-31T08:03:43;10.70;99.90
7196;DHT22;3639;51.308;5.624;2023-10-31T08:06:11;10.80;99.90
7196;DHT22;3639;51.308;5.624;2023-10-31T08:08:36;10.80;99.90
7196;DHT22;3639;51.308;5.624;2023-10-31T08:11:02;10.80;99.90
7196;DHT22;3639;51.308;5.624;2023-10-31T08:13:29;10.80;99.90
7196;DHT22;3639;51.308;5.624;2023-10-31T08:15:55;10.80;99.90
7196;DHT22;3639;51.308;5.624;2023-10-31T08:18:22;10.90;99.90
7196;DHT22;3639;51.308;5.624;2023-10-31T08:20:49;10.90;99.90
7196;DHT22;3639;51.308;5.624;2023-10-31T08:23:16;11.00;99.90
7196;DHT22;3639;51.308;5.624;2023-10-31T08:25:42;11.00;99.90
7196;DHT22;3639;51.308;5.624;2023-10-31T08:28:07;11.10;99.90
7196;DHT22;3639;51.308;5.624;2023-10-31T08:30:33;11.10;99.90
7196;DHT22;3639;51.308;5.624;2023-10-31T08:32:59;11.10;99.90
7196;DHT22;3639;51.308;5.624;2023-10-31T08:35:24;11.10;99.90
7196;DHT22;3639;51.308;5.624;2023-10-31T08:37:50;11.10;99.90
7196;DHT22;3639;51.308;5.624;2023-10-31T08:40:15;11.10;99.90
7196;DHT22;3639;51.308;5.624;2023-10-31T08:42:41;11.20;99.90
7196;DHT22;3639;51.308;5.624;2023-10-31T08:45:07;11.20;99.90
7196;DHT22;3639;51.308;5.624;2023-10-31T08:47:33;11.30;99.90
7196;DHT22;3639;51.308;5.624;2023-10-31T08:49:59;11.30;99.90
7196;DHT22;3639;51.308;5.624;2023-10-31T08:52:24;11.40;99.90
7196;DHT22;3639;51.308;5.624;2023-10-31T08:54:50;11.50;99.90
7196;DHT22;3639;51.308;5.624;2023-10-31T08:57:15;11.60;99.90
7196;DHT22;3639;51.308;5.624;2023-10-31T08:59:41;11.60;99.90
7196;DHT22;3639;51.308;5.624;2023-10-31T09:02:06;11.60;99.90
7196;DHT22;3639;51.308;5.624;2023-10-31T09:04:32;11.60;99.90
7196;DHT22;3639;51.308;5.624;2023-10-31T09:06:58;11.60;99.90
7196;DHT22;3639;51.308;5.624;2023-10-31T09:09:23;11.50;99.90
7196;DHT22;3639;51.308;5.624;2023-10-31T09:11:49;11.50;99.90
7196;DHT22;3639;51.308;5.624;2023-10-31T09:14:14;11.60;99.90
7196;DHT22;3639;51.308;5.624;2023-10-31T09:16:40;11.60;99.90
7196;DHT22;3639;51.308;5.624;2023-10-31T09:19:06;11.60;99.90
7196;DHT22;3639;51.308;5.624;2023-10-31T09:21:31;11.60;99.90
7196;DHT22;3639;51.308;5.624;2023-10-31T09:23:57;11.60;99.90
7196;DHT22;3639;51.308;5.624;2023-10-31T09:26:23;11.70;99.90
7196;DHT22;3639;51.308;5.624;2023-10-31T09:28:48;11.70;99.90
7196;DHT22;3639;51.308;5.624;2023-10-31T09:31:19;11.60;99.90
7196;DHT22;3639;51.308;5.624;2023-10-31T09:33:45;11.60;99.90
7196;DHT22;3639;51.308;5.624;2023-10-31T09:36:11;11.80;99.90
7196;DHT22;3639;51.308;5.624;2023-10-31T09:38:38;11.80;99.90
7196;DHT22;3639;51.308;5.624;2023-10-31T09:41:04;11.80;99.90
7196;DHT22;3639;51.308;5.624;2023-10-31T09:43:30;11.80;99.90
7196;DHT22;3639;51.308;5.624;2023-10-31T09:45:57;11.80;99.90
7196;DHT22;3639;51.308;5.624;2023-10-31T09:48:23;11.80;99.90
7196;DHT22;3639;51.308;5.624;2023-10-31T09:50:49;11.90;99.90
7196;DHT22;3639;51.308;5.624;2023-10-31T09:53:15;12.00;99.90
7196;DHT22;3639;51.308;5.624;2023-10-31T09:55:45;11.90;99.90
7196;DHT22;3639;51.308;5.624;2023-10-31T09:58:11;11.90;99.90
7196;DHT22;3639;51.308;5.624;2023-10-31T10:00:37;12.00;99.90
7196;DHT22;3639;51.308;5.624;2023-10-31T10:03:09;12.00;99.90
7196;DHT22;3639;51.308;5.624;2023-10-31T10:05:36;12.10;99.90
7196;DHT22;3639;51.308;5.624;2023-10-31T10:08:03;12.10;99.90
7196;DHT22;3639;51.308;5.624;2023-10-31T10:10:29;12.20;99.90
7196;DHT22;3639;51.308;5.624;2023-10-31T10:12:55;12.20;99.90
7196;DHT22;3639;51.308;5.624;2023-10-31T10:15:21;12.30;99.90
7196;DHT22;3639;51.308;5.624;2023-10-31T10:17:51;12.30;99.90
7196;DHT22;3639;51.308;5.624;2023-10-31T10:20:17;12.30;99.90
7196;DHT22;3639;51.308;5.624;2023-10-31T10:22:43;12.30;99.90
7196;DHT22;3639;51.308;5.624;2023-10-31T10:25:10;12.40;99.90
7196;DHT22;3639;51.308;5.624;2023-10-31T10:27:44;12.40;99.90
7196;DHT22;3639;51.308;5.624;2023-10-31T10:30:10;12.40;99.90
7196;DHT22;3639;51.308;5.624;2023-10-31T10:32:36;12.50;99.90
7196;DHT22;3639;51.308;5.624;2023-10-31T10:35:02;12.60;99.90
7196;DHT22;3639;51.308;5.624;2023-10-31T10:37:28;12.60;99.90
7196;DHT22;3639;51.308;5.624;2023-10-31T10:39:56;12.60;99.90
7196;DHT22;3639;51.308;5.624;2023-10-31T10:42:45;12.60;99.90
7196;DHT22;3639;51.308;5.624;2023-10-31T10:45:15;12.50;99.90
7196;DHT22;3639;51.308;5.624;2023-10-31T10:47:49;12.50;99.90
7196;DHT22;3639;51.308;5.624;2023-10-31T10:50:15;12.50;99.90
7196;DHT22;3639;51.308;5.624;2023-10-31T10:52:54;12.60;99.90
7196;DHT22;3639;51.308;5.624;2023-10-31T10:55:26;12.60;99.90
7196;DHT22;3639;51.308;5.624;2023-10-31T10:58:05;12.70;99.90
7196;DHT22;3639;51.308;5.624;2023-10-31T11:00:31;12.90;99.90
7196;DHT22;3639;51.308;5.624;2023-10-31T11:02:57;13.00;99.90
7196;DHT22;3639;51.308;5.624;2023-10-31T11:05:24;13.20;99.90
7196;DHT22;3639;51.308;5.624;2023-10-31T11:07:51;13.50;99.90
7196;DHT22;3639;51.308;5.624;2023-10-31T11:10:17;13.70;99.90
7196;DHT22;3639;51.308;5.624;2023-10-31T11:12:43;13.90;99.90
7196;DHT22;3639;51.308;5.624;2023-10-31T11:15:13;14.00;99.90
7196;DHT22;3639;51.308;5.624;2023-10-31T11:17:42;14.00;99.90
7196;DHT22;3639;51.308;5.624;2023-10-31T11:20:10;13.90;99.90
7196;DHT22;3639;51.308;5.624;2023-10-31T11:22:40;13.90;99.90
7196;DHT22;3639;51.308;5.624;2023-10-31T11:25:14;13.90;99.90
7196;DHT22;3639;51.308;5.624;2023-10-31T11:27:40;13.80;99.90
7196;DHT22;3639;51.308;5.624;2023-10-31T11:30:27;13.80;99.90
7196;DHT22;3639;51.308;5.624;2023-10-31T11:32:55;13.80;99.90
7196;DHT22;3639;51.308;5.624;2023-10-31T11:35:22;13.90;99.90
7196;DHT22;3639;51.308;5.624;2023-10-31T11:37:49;14.00;99.90
7196;DHT22;3639;51.308;5.624;2023-10-31T11:40:25;14.10;99.90
7196;DHT22;3639;51.308;5.624;2023-10-31T11:42:52;14.30;99.90
7196;DHT22;3639;51.308;5.624;2023-10-31T11:45:41;14.50;99.90
7196;DHT22;3639;51.308;5.624;2023-10-31T11:48:08;14.60;99.90
7196;DHT22;3639;51.308;5.624;2023-10-31T11:50:36;14.70;99.90
7196;DHT22;3639;51.308;5.624;2023-10-31T11:53:06;14.80;99.90
7196;DHT22;3639;51.308;5.624;2023-10-31T11:55:38;14.80;99.90
7196;DHT22;3639;51.308;5.624;2023-10-31T11:58:24;14.70;99.90
7196;DHT22;3639;51.308;5.624;2023-10-31T12:01:02;14.70;99.90
7196;DHT22;3639;51.308;5.624;2023-10-31T12:03:42;14.80;99.90
7196;DHT22;3639;51.308;5.624;2023-10-31T12:06:13;14.80;99.90
7196;DHT22;3639;51.308;5.624;2023-10-31T12:08:41;14.70;99.90
7196;DHT22;3639;51.308;5.624;2023-10-31T12:11:11;14.60;99.90
7196;DHT22;3639;51.308;5.624;2023-10-31T12:13:39;14.50;99.90
7196;DHT22;3639;51.308;5.624;2023-10-31T12:16:06;14.40;99.90
7196;DHT22;3639;51.308;5.624;2023-10-31T12:18:34;14.40;99.90
7196;DHT22;3639;51.308;5.624;2023-10-31T12:21:00;14.40;99.90
7196;DHT22;3639;51.308;5.624;2023-10-31T12:23:26;14.50;99.90
7196;DHT22;3639;51.308;5.624;2023-10-31T12:25:51;14.50;99.90
7196;DHT22;3639;51.308;5.624;2023-10-31T12:28:21;14.50;99.90
7196;DHT22;3639;51.308;5.624;2023-10-31T12:30:49;14.50;99.90
7196;DHT22;3639;51.308;5.624;2023-10-31T12:33:16;14.60;99.90
7196;DHT22;3639;51.308;5.624;2023-10-31T12:35:42;14.60;99.90
7196;DHT22;3639;51.308;5.624;2023-10-31T12:38:11;14.50;99.90
7196;DHT22;3639;51.308;5.624;2023-10-31T12:40:37;14.50;99.90
7196;DHT22;3639;51.308;5.624;2023-10-31T12:43:03;14.40;99.90
7196;DHT22;3639;51.308;5.624;2023-10-31T12:45:29;14.40;99.90
7196;DHT22;3639;51.308;5.624;2023-10-31T12:48:07;14.50;99.90
7196;DHT22;3639;51.308;5.624;2023-10-31T12:50:34;14.50;99.90
7196;DHT22;3639;51.308;5.624;2023-10-31T12:53:03;14.40;99.90
7196;DHT22;3639;51.308;5.624;2023-10-31T12:55:30;14.20;99.90
7196;DHT22;3639;51.308;5.624;2023-10-31T12:57:57;14.10;99.90
7196;DHT22;3639;51.308;5.624;2023-10-31T13:00:30;14.00;99.90
7196;DHT22;3639;51.308;5.624;2023-10-31T13:03:07;13.90;99.90
7196;DHT22;3639;51.308;5.624;2023-10-31T13:05:34;14.00;99.90
7196;DHT22;3639;51.308;5.624;2023-10-31T13:08:00;14.10;99.90
7196;DHT22;3639;51.308;5.624;2023-10-31T13:10:28;14.10;99.90
7196;DHT22;3639;51.308;5.624;2023-10-31T13:12:55;14.20;99.90
7196;DHT22;3639;51.308;5.624;2023-10-31T13:15:22;14.30;99.90
7196;DHT22;3639;51.308;5.624;2023-10-31T13:17:51;14.30;99.90
7196;DHT22;3639;51.308;5.624;2023-10-31T13:20:18;14.30;99.90
7196;DHT22;3639;51.308;5.624;2023-10-31T13:22:44;14.30;99.90
7196;DHT22;3639;51.308;5.624;2023-10-31T13:25:14;14.20;99.90
7196;DHT22;3639;51.308;5.624;2023-10-31T13:27:45;14.10;99.90
7196;DHT22;3639;51.308;5.624;2023-10-31T13:30:12;14.10;99.90
7196;DHT22;3639;51.308;5.624;2023-10-31T13:32:39;14.20;99.90
7196;DHT22;3639;51.308;5.624;2023-10-31T13:35:06;14.30;99.90
7196;DHT22;3639;51.308;5.624;2023-10-31T13:37:35;14.20;99.90
7196;DHT22;3639;51.308;5.624;2023-10-31T13:40:00;14.20;99.90
7196;DHT22;3639;51.308;5.624;2023-10-31T13:42:26;14.20;99.90
7196;DHT22;3639;51.308;5.624;2023-10-31T13:44:53;14.10;99.90
7196;DHT22;3639;51.308;5.624;2023-10-31T13:47:19;14.10;99.90
7196;DHT22;3639;51.308;5.624;2023-10-31T13:49:44;14.10;99.90
7196;DHT22;3639;51.308;5.624;2023-10-31T13:52:10;14.00;99.90
7196;DHT22;3639;51.308;5.624;2023-10-31T13:54:36;14.00;99.90
7196;DHT22;3639;51.308;5.624;2023-10-31T13:57:02;13.90;99.90
7196;DHT22;3639;51.308;5.624;2023-10-31T13:59:27;13.90;99.90
7196;DHT22;3639;51.308;5.624;2023-10-31T14:01:53;13.80;99.90
7196;DHT22;3639;51.308;5.624;2023-10-31T14:04:19;13.80;99.90
7196;DHT22;3639;51.308;5.624;2023-10-31T14:06:45;13.80;99.90
7196;DHT22;3639;51.308;5.624;2023-10-31T14:09:11;13.80;99.90
7196;DHT22;3639;51.308;5.624;2023-10-31T14:11:38;13.80;99.90
7196;DHT22;3639;51.308;5.624;2023-10-31T14:14:03;13.80;99.90
7196;DHT22;3639;51.308;5.624;2023-10-31T14:16:38;13.80;99.90
7196;DHT22;3639;51.308;5.624;2023-10-31T14:19:07;13.80;99.90
7196;DHT22;3639;51.308;5.624;2023-10-31T14:21:35;13.80;99.90
7196;DHT22;3639;51.308;5.624;2023-10-31T14:24:02;13.80;99.90
7196;DHT22;3639;51.308;5.624;2023-10-31T14:26:29;13.70;99.90
7196;DHT22;3639;51.308;5.624;2023-10-31T14:28:55;13.60;99.90
7196;DHT22;3639;51.308;5.624;2023-10-31T14:31:21;13.40;99.90
7196;DHT22;3639;51.308;5.624;2023-10-31T14:33:47;13.30;99.90
7196;DHT22;3639;51.308;5.624;2023-10-31T14:36:13;13.10;99.90
7196;DHT22;3639;51.308;5.624;2023-10-31T14:38:40;13.00;99.90
7196;DHT22;3639;51.308;5.624;2023-10-31T14:41:06;13.00;99.90
7196;DHT22;3639;51.308;5.624;2023-10-31T14:43:33;12.90;99.90
7196;DHT22;3639;51.308;5.624;2023-10-31T14:45:59;12.80;99.90
7196;DHT22;3639;51.308;5.624;2023-10-31T14:48:25;12.70;99.90
7196;DHT22;3639;51.308;5.624;2023-10-31T14:50:51;12.70;99.90
7196;DHT22;3639;51.308;5.624;2023-10-31T14:53:18;12.60;99.90
7196;DHT22;3639;51.308;5.624;2023-10-31T14:55:45;12.50;99.90
7196;DHT22;3639;51.308;5.624;2023-10-31T14:58:10;12.40;99.90
7196;DHT22;3639;51.308;5.624;2023-10-31T15:00:36;12.30;99.90
7196;DHT22;3639;51.308;5.624;2023-10-31T15:03:03;12.30;99.90
7196;DHT22;3639;51.308;5.624;2023-10-31T15:05:28;12.30;99.90
7196;DHT22;3639;51.308;5.624;2023-10-31T15:07:54;12.20;99.90
7196;DHT22;3639;51.308;5.624;2023-10-31T15:10:23;12.20;99.90
7196;DHT22;3639;51.308;5.624;2023-10-31T15:12:49;12.20;99.90
7196;DHT22;3639;51.308;5.624;2023-10-31T15:15:16;12.20;99.90
7196;DHT22;3639;51.308;5.624;2023-10-31T15:17:42;12.20;99.90
7196;DHT22;3639;51.308;5.624;2023-10-31T15:20:08;12.30;99.90
7196;DHT22;3639;51.308;5.624;2023-10-31T15:22:44;12.30;99.90
7196;DHT22;3639;51.308;5.624;2023-10-31T15:25:10;12.30;99.90
7196;DHT22;3639;51.308;5.624;2023-10-31T15:27:36;12.30;99.90
7196;DHT22;3639;51.308;5.624;2023-10-31T15:30:03;12.30;99.90
7196;DHT22;3639;51.308;5.624;2023-10-31T15:32:30;12.40;99.90
7196;DHT22;3639;51.308;5.624;2023-10-31T15:34:55;12.50;99.90
7196;DHT22;3639;51.308;5.624;2023-10-31T15:37:21;12.50;99.90
7196;DHT22;3639;51.308;5.624;2023-10-31T15:39:47;12.40;99.90
7196;DHT22;3639;51.308;5.624;2023-10-31T15:42:16;12.40;99.90
7196;DHT22;3639;51.308;5.624;2023-10-31T15:44:42;12.40;99.90
7196;DHT22;3639;51.308;5.624;2023-10-31T15:47:08;12.40;99.90
7196;DHT22;3639;51.308;5.624;2023-10-31T15:49:35;12.40;99.90
7196;DHT22;3639;51.308;5.624;2023-10-31T15:52:01;12.40;99.90
7196;DHT22;3639;51.308;5.624;2023-10-31T15:54:28;12.40;99.90
7196;DHT22;3639;51.308;5.624;2023-10-31T15:56:54;12.40;99.90
7196;DHT22;3639;51.308;5.624;2023-10-31T15:59:19;12.40;99.90